Al Cenac — WDD5445 — position and weather

sailwx.info

Track history (hours):
 
Tides and Currents Weather Stations Pressure Air Temp Water Temp Dewpoint Dewpoint Depression Visibility Wind Speed Wind Dir Waves Ship Positions

Al Cenac

Owner: Caillou Island Towing Co, Inc., Houma, LA. More information available from US FCC via Universal Licensing System and Coast Guard Vessel Documentation Center.

Last reported at 2015-May-04 08:30 UTC. Time now 2015-May-04 10:02 UTC.
Position N 40°34' W 074°14'.

; draft 10 m.

MMSI: 367158530.

Date/timePositionNaut miles runAvg speedWind from/ knotsBaromVisibWave heightAir tempDewpointWater temp
2015-May-04 08:30N 40°34' W 074°14'0 0.0
2015-May-04 07:33N 40°34' W 074°14'2 1.5
2015-May-04 06:30N 40°32' W 074°15'1 0.2
2015-May-03 22:18N 40°33' W 074°14'0 0.4
2015-May-03 21:33N 40°34' W 074°14'2 1.1
2015-May-03 20:06N 40°32' W 074°15'2 1.0
2015-May-03 18:30N 40°34' W 074°14'0 0.0
2015-May-03 17:27N 40°34' W 074°14'0 0.0
2015-May-03 07:22N 40°34' W 074°14'0 0.0
2015-May-03 06:14N 40°34' W 074°14'0 0.0
2015-May-03 04:33N 40°34' W 074°14'0 0.0
2015-May-03 02:13N 40°34' W 074°14'0 0.1
2015-May-03 00:27N 40°33' W 074°14'6 6.8
2015-May-02 23:33N 40°39' W 074°10'7 6.9
2015-May-02 22:33N 40°40' W 074°01'1 0.5
2015-May-02 21:30N 40°40' W 074°00'5 5.6
2015-May-02 20:33N 40°39' W 074°07'0 0.0
2015-May-02 19:31N 40°39' W 074°07'0 0.0
2015-May-02 18:29N 40°39' W 074°07'0 0.0
2015-May-02 17:29N 40°39' W 074°07'0 0.0
2015-May-02 16:33N 40°39' W 074°07'3 3.1
2015-May-02 15:33N 40°39' W 074°03'2 1.7
2015-May-02 14:33N 40°40' W 074°01'4 4.2
2015-May-02 13:33N 40°39' W 074°06'1 0.9
2015-May-02 12:22N 40°38' W 074°08'0 0.0
2015-May-02 11:22N 40°38' W 074°08'0 0.0
2015-May-02 10:05N 40°38' W 074°08'0 0.0
2015-May-02 09:21N 40°38' W 074°08'4 4.5
2015-May-02 08:34N 40°37' W 074°12'4 1.9
2015-May-02 06:29N 40°34' W 074°14'1 0.8
2015-May-02 05:26N 40°33' W 074°15'0 0.1
2015-May-02 03:28N 40°33' W 074°15'0 0.1
2015-May-02 01:28N 40°33' W 074°15'5 2.4
2015-May-01 23:24N 40°37' W 074°12'4 3.5
2015-May-01 22:24N 40°38' W 074°08'0 0.0
2015-May-01 21:31N 40°38' W 074°08'0 0.0
2015-May-01 20:20N 40°38' W 074°08'0 0.0
2015-May-01 19:32N 40°38' W 074°08'0 0.0
2015-May-01 18:27N 40°38' W 074°08'0 0.0
2015-May-01 17:28N 40°38' W 074°08'0 0.0
2015-May-01 16:28N 40°38' W 074°08'0 0.0
2015-May-01 15:17N 40°38' W 074°08'0 0.0
2015-May-01 14:24N 40°38' W 074°08'0 0.0
2015-May-01 13:24N 40°38' W 074°08'0 0.0
2015-May-01 12:25N 40°38' W 074°08'0 0.0
2015-May-01 09:15N 40°38' W 074°08'0 0.0
2015-May-01 08:13N 40°38' W 074°08'0 0.0
2015-May-01 07:29N 40°38' W 074°08'0 0.0
2015-May-01 06:29N 40°38' W 074°08'3 2.8
2015-May-01 05:33N 40°39' W 074°11'4 2.8
2015-May-01 04:16N 40°35' W 074°12'2 2.4
2015-May-01 03:22N 40°37' W 074°12'4 3.7
2015-May-01 02:25N 40°38' W 074°08'0 0.0
2015-May-01 01:31N 40°38' W 074°08'0 0.0
2015-May-01 00:25N 40°38' W 074°08'0 0.0
2015-Apr-30 23:32N 40°38' W 074°08'0 0.0
2015-Apr-30 22:21N 40°38' W 074°08'0 0.0
2015-Apr-30 21:15N 40°38' W 074°08'0 0.0
2015-Apr-30 20:28N 40°38' W 074°08'0 0.0
2015-Apr-30 19:25N 40°38' W 074°08'0 0.0
2015-Apr-30 18:29N 40°38' W 074°08'0 0.0
2015-Apr-30 17:30N 40°38' W 074°08'0 0.0
2015-Apr-30 16:24N 40°38' W 074°08'0 0.0
2015-Apr-30 15:25N 40°38' W 074°08'0 0.0
2015-Apr-30 14:32N 40°38' W 074°08'0 0.0
2015-Apr-30 13:17N 40°38' W 074°08'0 0.0
2015-Apr-30 12:33N 40°38' W 074°08'0 0.0
2015-Apr-30 11:33N 40°38' W 074°08'5 4.5
2015-Apr-30 10:27N 40°35' W 074°13'2 2.1
2015-Apr-30 09:33N 40°33' W 074°14'3 2.5
2015-Apr-30 08:31N 40°36' W 074°12'0 0.0
2015-Apr-30 07:28N 40°36' W 074°12'0 0.0
2015-Apr-30 06:23N 40°36' W 074°12'0 0.0
2015-Apr-30 05:33N 40°36' W 074°12'1 0.9
2015-Apr-30 04:33N 40°37' W 074°12'0 0.3
2015-Apr-30 03:32N 40°36' W 074°12'0 0.0
2015-Apr-30 02:33N 40°36' W 074°12'0 0.0
2015-Apr-30 01:30N 40°36' W 074°12'0 0.0
2015-Apr-30 00:25N 40°36' W 074°12'0 0.0
2015-Apr-29 22:23N 40°36' W 074°12'4 4.8
2015-Apr-29 21:33N 40°33' W 074°15'1 0.2
2015-Apr-29 17:22N 40°33' W 074°14'2 2.7
2015-Apr-29 16:28N 40°35' W 074°12'3 3.5
2015-Apr-29 15:28N 40°33' W 074°15'3 2.4
2015-Apr-29 14:08N 40°30' W 074°17'0 0.4
2015-Apr-29 13:31N 40°29' W 074°16'9 7.7
2015-Apr-29 12:24N 40°37' W 074°12'3 3.7
2015-Apr-29 11:29N 40°38' W 074°08'0 0.0
2015-Apr-29 10:23N 40°38' W 074°08'0 0.0
2015-Apr-29 09:30N 40°38' W 074°08'0 0.0
2015-Apr-29 08:30N 40°38' W 074°08'0 0.0
2015-Apr-29 07:31N 40°38' W 074°08'0 0.0
2015-Apr-29 06:32N 40°38' W 074°08'0 0.0
2015-Apr-29 05:27N 40°38' W 074°08'0 0.0
2015-Apr-29 04:33N 40°38' W 074°08'1 0.7
2015-Apr-29 03:33N 40°39' W 074°07'2 1.8
2015-Apr-29 02:33N 40°39' W 074°05'2 2.3
2015-Apr-29 01:30N 40°38' W 074°08'0 0.0
2015-Apr-29 00:24N 40°38' W 074°08'0 0.0
2015-Apr-28 23:31N 40°38' W 074°08'0 0.0
2015-Apr-28 22:32N 40°38' W 074°08'0 0.0
2015-Apr-28 21:32N 40°38' W 074°08'0 0.0
2015-Apr-28 20:33N 40°38' W 074°08'3 3.3
2015-Apr-28 19:33N 40°38' W 074°12'1 0.6
2015-Apr-28 18:23N 40°37' W 074°12'4 4.1
2015-Apr-28 17:30N 40°38' W 074°08'0 0.0
2015-Apr-28 16:32N 40°38' W 074°08'0 0.0
2015-Apr-28 15:32N 40°38' W 074°08'0 0.0
2015-Apr-28 14:33N 40°38' W 074°08'0 0.0
2015-Apr-28 13:33N 40°38' W 074°08'0 0.0
2015-Apr-28 12:28N 40°38' W 074°08'0 0.0
2015-Apr-28 11:29N 40°38' W 074°08'0 0.0
2015-Apr-28 10:29N 40°38' W 074°08'0 0.0
2015-Apr-28 09:24N 40°38' W 074°08'0 0.0
2015-Apr-28 08:31N 40°38' W 074°08'0 0.0
2015-Apr-28 07:25N 40°38' W 074°08'0 0.0
2015-Apr-28 06:32N 40°38' W 074°08'0 0.0
2015-Apr-28 05:33N 40°38' W 074°08'0 0.0
2015-Apr-28 04:27N 40°38' W 074°08'0 0.0
2015-Apr-28 03:28N 40°38' W 074°08'2 2.5
2015-Apr-28 02:33N 40°39' W 074°05'2 2.0
2015-Apr-28 01:24N 40°38' W 074°08'0 0.0
2015-Apr-28 00:25N 40°38' W 074°08'0 0.0
2015-Apr-27 23:14N 40°38' W 074°08'0 0.0
2015-Apr-27 22:32N 40°38' W 074°08'0 0.0
2015-Apr-27 21:33N 40°38' W 074°08'0 0.0
2015-Apr-27 20:28N 40°38' W 074°08'0 0.0
2015-Apr-27 19:22N 40°38' W 074°08'0 0.0
2015-Apr-27 18:29N 40°38' W 074°08'0 0.0
2015-Apr-27 17:30N 40°38' W 074°08'0 0.0
2015-Apr-27 16:24N 40°38' W 074°08'1 1.7
2015-Apr-27 15:33N 40°39' W 074°10'3 2.8
2015-Apr-27 14:29N 40°36' W 074°12'4 4.2
2015-Apr-27 13:33N 40°38' W 074°08'0 0.0
2015-Apr-27 12:31N 40°38' W 074°08'0 0.0
2015-Apr-27 11:31N 40°38' W 074°08'0 0.0
2015-Apr-27 10:32N 40°38' W 074°08'0 0.0
2015-Apr-27 09:30N 40°38' W 074°08'2 2.5
2015-Apr-27 08:34N 40°39' W 074°05'2 0.8
2015-Apr-27 05:33N 40°39' W 074°08'8 2.1
2015-Apr-27 01:33N 40°32' W 074°15'0 0.0
2015-Apr-27 00:33N 40°32' W 074°15'4 3.9
2015-Apr-26 23:28N 40°36' W 074°12'4 4.3
2015-Apr-26 22:30N 40°38' W 074°08'0 0.0
2015-Apr-26 21:30N 40°38' W 074°08'0 0.0
2015-Apr-26 20:31N 40°38' W 074°08'0 0.0
2015-Apr-26 19:31N 40°38' W 074°08'0 0.0
2015-Apr-26 18:32N 40°38' W 074°08'0 0.0
2015-Apr-26 17:33N 40°38' W 074°08'0 0.0
2015-Apr-26 16:33N 40°38' W 074°08'0 0.0
2015-Apr-26 15:31N 40°38' W 074°08'0 0.0
2015-Apr-26 14:32N 40°38' W 074°08'0 0.0
2015-Apr-26 13:29N 40°38' W 074°08'0 0.0
2015-Apr-26 12:33N 40°38' W 074°08'0 0.0
2015-Apr-26 11:31N 40°38' W 074°08'0 0.0
2015-Apr-26 10:31N 40°38' W 074°08'0 0.0
2015-Apr-26 09:32N 40°38' W 074°08'0 0.0
2015-Apr-26 08:32N 40°38' W 074°08'0 0.0
2015-Apr-26 07:33N 40°38' W 074°08'0 0.0
2015-Apr-26 06:28N 40°38' W 074°08'0 0.0
2015-Apr-26 05:31N 40°38' W 074°08'0 0.0
2015-Apr-26 04:32N 40°38' W 074°08'0 0.0
2015-Apr-26 03:33N 40°38' W 074°08'0 0.0
2015-Apr-26 02:30N 40°38' W 074°08'0 0.0
2015-Apr-26 01:25N 40°38' W 074°08'0 0.0
2015-Apr-26 00:32N 40°38' W 074°08'0 0.0
2015-Apr-25 23:32N 40°38' W 074°08'0 0.0
2015-Apr-25 22:33N 40°38' W 074°08'0 0.0
2015-Apr-25 21:31N 40°38' W 074°08'0 0.0
2015-Apr-25 20:31N 40°38' W 074°08'0 0.0
2015-Apr-25 19:32N 40°38' W 074°08'0 0.0
2015-Apr-25 18:33N 40°38' W 074°08'0 0.0
2015-Apr-25 17:30N 40°38' W 074°08'0 0.0
2015-Apr-25 16:33N 40°38' W 074°08'8 8.4
2015-Apr-25 15:33N 40°43' W 073°58'6 6.2
2015-Apr-25 14:33N 40°48' W 073°54'4 4.5
2015-Apr-25 13:33N 40°45' W 073°58'6 6.2
2015-Apr-25 12:33N 40°40' W 074°03'4 3.9
2015-Apr-25 11:33N 40°39' W 074°08'0 0.2
2015-Apr-25 10:31N 40°38' W 074°08'0 0.0
2015-Apr-25 09:31N 40°38' W 074°08'0 0.0
2015-Apr-25 08:29N 40°38' W 074°08'0 0.0
2015-Apr-25 07:33N 40°38' W 074°08'0 0.0
2015-Apr-25 06:30N 40°38' W 074°08'0 0.0
2015-Apr-25 05:31N 40°38' W 074°08'0 0.0
2015-Apr-25 04:31N 40°38' W 074°08'0 0.0
2015-Apr-25 03:32N 40°38' W 074°08'0 0.0
2015-Apr-25 02:33N 40°38' W 074°08'0 0.0
2015-Apr-25 01:33N 40°38' W 074°08'16781615.8
2015-Apr-25 00:31N 68°36' W 074°08'16771745.8
2015-Apr-24 23:34N 40°39' W 074°07'1 0.8
2015-Apr-24 22:32N 40°38' W 074°08'0 0.0
2015-Apr-24 21:33N 40°38' W 074°08'0 0.0
2015-Apr-24 20:33N 40°38' W 074°08'0 0.0
2015-Apr-24 19:31N 40°38' W 074°08'0 0.0
2015-Apr-24 18:29N 40°38' W 074°08'0 0.0
2015-Apr-24 17:29N 40°38' W 074°08'0 0.0
2015-Apr-24 16:33N 40°38' W 074°08'0 0.0
2015-Apr-24 15:25N 40°38' W 074°08'0 0.0
2015-Apr-24 14:31N 40°38' W 074°08'2 2.1
2015-Apr-24 13:33N 40°39' W 074°05'8 7.9
2015-Apr-24 12:32N 40°46' W 074°00'0 0.2
2015-Apr-24 11:32N 40°46' W 074°00'0 0.2
2015-Apr-24 10:31N 40°46' W 074°00'0 0.0
2015-Apr-24 09:32N 40°46' W 074°00'6 6.1
2015-Apr-24 08:33N 40°40' W 074°03'  
Track history (hours):
 
Tides and Currents Weather Stations Pressure Air Temp Water Temp Dewpoint Dewpoint Depression Visibility Wind Speed Wind Dir Waves Ship Positions

Al Cenac

Owner: Caillou Island Towing Co, Inc., Houma, LA. More information available from US FCC via Universal Licensing System and Coast Guard Vessel Documentation Center.

Last reported at 2015-May-04 08:30 UTC. Time now 2015-May-04 10:02 UTC.
Position N 40°34' W 074°14'.

; draft 10 m.

MMSI: 367158530.

Date/timePositionNaut miles runAvg speedWind from/ knotsBaromVisibWave heightAir tempDewpointWater temp
2015-May-04 08:30N 40°34' W 074°14'0 0.0
2015-May-04 07:33N 40°34' W 074°14'2 1.5
2015-May-04 06:30N 40°32' W 074°15'1 0.2
2015-May-03 22:18N 40°33' W 074°14'0 0.4
2015-May-03 21:33N 40°34' W 074°14'2 1.1
2015-May-03 20:06N 40°32' W 074°15'2 1.0
2015-May-03 18:30N 40°34' W 074°14'0 0.0
2015-May-03 17:27N 40°34' W 074°14'0 0.0
2015-May-03 07:22N 40°34' W 074°14'0 0.0
2015-May-03 06:14N 40°34' W 074°14'0 0.0
2015-May-03 04:33N 40°34' W 074°14'0 0.0
2015-May-03 02:13N 40°34' W 074°14'0 0.1
2015-May-03 00:27N 40°33' W 074°14'6 6.8
2015-May-02 23:33N 40°39' W 074°10'7 6.9
2015-May-02 22:33N 40°40' W 074°01'1 0.5
2015-May-02 21:30N 40°40' W 074°00'5 5.6
2015-May-02 20:33N 40°39' W 074°07'0 0.0
2015-May-02 19:31N 40°39' W 074°07'0 0.0
2015-May-02 18:29N 40°39' W 074°07'0 0.0
2015-May-02 17:29N 40°39' W 074°07'0 0.0
2015-May-02 16:33N 40°39' W 074°07'3 3.1
2015-May-02 15:33N 40°39' W 074°03'2 1.7
2015-May-02 14:33N 40°40' W 074°01'4 4.2
2015-May-02 13:33N 40°39' W 074°06'1 0.9
2015-May-02 12:22N 40°38' W 074°08'0 0.0
2015-May-02 11:22N 40°38' W 074°08'0 0.0
2015-May-02 10:05N 40°38' W 074°08'0 0.0
2015-May-02 09:21N 40°38' W 074°08'4 4.5
2015-May-02 08:34N 40°37' W 074°12'4 1.9
2015-May-02 06:29N 40°34' W 074°14'1 0.8
2015-May-02 05:26N 40°33' W 074°15'0 0.1
2015-May-02 03:28N 40°33' W 074°15'0 0.1
2015-May-02 01:28N 40°33' W 074°15'5 2.4
2015-May-01 23:24N 40°37' W 074°12'4 3.5
2015-May-01 22:24N 40°38' W 074°08'0 0.0
2015-May-01 21:31N 40°38' W 074°08'0 0.0
2015-May-01 20:20N 40°38' W 074°08'0 0.0
2015-May-01 19:32N 40°38' W 074°08'0 0.0
2015-May-01 18:27N 40°38' W 074°08'0 0.0
2015-May-01 17:28N 40°38' W 074°08'0 0.0
2015-May-01 16:28N 40°38' W 074°08'0 0.0
2015-May-01 15:17N 40°38' W 074°08'0 0.0
2015-May-01 14:24N 40°38' W 074°08'0 0.0
2015-May-01 13:24N 40°38' W 074°08'0 0.0
2015-May-01 12:25N 40°38' W 074°08'0 0.0
2015-May-01 09:15N 40°38' W 074°08'0 0.0
2015-May-01 08:13N 40°38' W 074°08'0 0.0
2015-May-01 07:29N 40°38' W 074°08'0 0.0
2015-May-01 06:29N 40°38' W 074°08'3 2.8
2015-May-01 05:33N 40°39' W 074°11'4 2.8
2015-May-01 04:16N 40°35' W 074°12'2 2.4
2015-May-01 03:22N 40°37' W 074°12'4 3.7
2015-May-01 02:25N 40°38' W 074°08'0 0.0
2015-May-01 01:31N 40°38' W 074°08'0 0.0
2015-May-01 00:25N 40°38' W 074°08'0 0.0
2015-Apr-30 23:32N 40°38' W 074°08'0 0.0
2015-Apr-30 22:21N 40°38' W 074°08'0 0.0
2015-Apr-30 21:15N 40°38' W 074°08'0 0.0
2015-Apr-30 20:28N 40°38' W 074°08'0 0.0
2015-Apr-30 19:25N 40°38' W 074°08'0 0.0
2015-Apr-30 18:29N 40°38' W 074°08'0 0.0
2015-Apr-30 17:30N 40°38' W 074°08'0 0.0
2015-Apr-30 16:24N 40°38' W 074°08'0 0.0
2015-Apr-30 15:25N 40°38' W 074°08'0 0.0
2015-Apr-30 14:32N 40°38' W 074°08'0 0.0
2015-Apr-30 13:17N 40°38' W 074°08'0 0.0
2015-Apr-30 12:33N 40°38' W 074°08'0 0.0
2015-Apr-30 11:33N 40°38' W 074°08'5 4.5
2015-Apr-30 10:27N 40°35' W 074°13'2 2.1
2015-Apr-30 09:33N 40°33' W 074°14'3 2.5
2015-Apr-30 08:31N 40°36' W 074°12'0 0.0
2015-Apr-30 07:28N 40°36' W 074°12'0 0.0
2015-Apr-30 06:23N 40°36' W 074°12'0 0.0
2015-Apr-30 05:33N 40°36' W 074°12'1 0.9
2015-Apr-30 04:33N 40°37' W 074°12'0 0.3
2015-Apr-30 03:32N 40°36' W 074°12'0 0.0
2015-Apr-30 02:33N 40°36' W 074°12'0 0.0
2015-Apr-30 01:30N 40°36' W 074°12'0 0.0
2015-Apr-30 00:25N 40°36' W 074°12'0 0.0
2015-Apr-29 22:23N 40°36' W 074°12'4 4.8
2015-Apr-29 21:33N 40°33' W 074°15'1 0.2
2015-Apr-29 17:22N 40°33' W 074°14'2 2.7
2015-Apr-29 16:28N 40°35' W 074°12'3 3.5
2015-Apr-29 15:28N 40°33' W 074°15'3 2.4
2015-Apr-29 14:08N 40°30' W 074°17'0 0.4
2015-Apr-29 13:31N 40°29' W 074°16'9 7.7
2015-Apr-29 12:24N 40°37' W 074°12'3 3.7
2015-Apr-29 11:29N 40°38' W 074°08'0 0.0
2015-Apr-29 10:23N 40°38' W 074°08'0 0.0
2015-Apr-29 09:30N 40°38' W 074°08'0 0.0
2015-Apr-29 08:30N 40°38' W 074°08'0 0.0
2015-Apr-29 07:31N 40°38' W 074°08'0 0.0
2015-Apr-29 06:32N 40°38' W 074°08'0 0.0
2015-Apr-29 05:27N 40°38' W 074°08'0 0.0
2015-Apr-29 04:33N 40°38' W 074°08'1 0.7
2015-Apr-29 03:33N 40°39' W 074°07'2 1.8
2015-Apr-29 02:33N 40°39' W 074°05'2 2.3
2015-Apr-29 01:30N 40°38' W 074°08'0 0.0
2015-Apr-29 00:24N 40°38' W 074°08'0 0.0
2015-Apr-28 23:31N 40°38' W 074°08'0 0.0
2015-Apr-28 22:32N 40°38' W 074°08'0 0.0
2015-Apr-28 21:32N 40°38' W 074°08'0 0.0
2015-Apr-28 20:33N 40°38' W 074°08'3 3.3
2015-Apr-28 19:33N 40°38' W 074°12'1 0.6
2015-Apr-28 18:23N 40°37' W 074°12'4 4.1
2015-Apr-28 17:30N 40°38' W 074°08'0 0.0
2015-Apr-28 16:32N 40°38' W 074°08'0 0.0
2015-Apr-28 15:32N 40°38' W 074°08'0 0.0
2015-Apr-28 14:33N 40°38' W 074°08'0 0.0
2015-Apr-28 13:33N 40°38' W 074°08'0 0.0
2015-Apr-28 12:28N 40°38' W 074°08'0 0.0
2015-Apr-28 11:29N 40°38' W 074°08'0 0.0
2015-Apr-28 10:29N 40°38' W 074°08'0 0.0
2015-Apr-28 09:24N 40°38' W 074°08'0 0.0
2015-Apr-28 08:31N 40°38' W 074°08'0 0.0
2015-Apr-28 07:25N 40°38' W 074°08'0 0.0
2015-Apr-28 06:32N 40°38' W 074°08'0 0.0
2015-Apr-28 05:33N 40°38' W 074°08'0 0.0
2015-Apr-28 04:27N 40°38' W 074°08'0 0.0
2015-Apr-28 03:28N 40°38' W 074°08'2 2.5
2015-Apr-28 02:33N 40°39' W 074°05'2 2.0
2015-Apr-28 01:24N 40°38' W 074°08'0 0.0
2015-Apr-28 00:25N 40°38' W 074°08'0 0.0
2015-Apr-27 23:14N 40°38' W 074°08'0 0.0
2015-Apr-27 22:32N 40°38' W 074°08'0 0.0
2015-Apr-27 21:33N 40°38' W 074°08'0 0.0
2015-Apr-27 20:28N 40°38' W 074°08'0 0.0
2015-Apr-27 19:22N 40°38' W 074°08'0 0.0
2015-Apr-27 18:29N 40°38' W 074°08'0 0.0
2015-Apr-27 17:30N 40°38' W 074°08'0 0.0
2015-Apr-27 16:24N 40°38' W 074°08'1 1.7
2015-Apr-27 15:33N 40°39' W 074°10'3 2.8
2015-Apr-27 14:29N 40°36' W 074°12'4 4.2
2015-Apr-27 13:33N 40°38' W 074°08'0 0.0
2015-Apr-27 12:31N 40°38' W 074°08'0 0.0
2015-Apr-27 11:31N 40°38' W 074°08'0 0.0
2015-Apr-27 10:32N 40°38' W 074°08'0 0.0
2015-Apr-27 09:30N 40°38' W 074°08'2 2.5
2015-Apr-27 08:34N 40°39' W 074°05'2 0.8
2015-Apr-27 05:33N 40°39' W 074°08'8 2.1
2015-Apr-27 01:33N 40°32' W 074°15'0 0.0
2015-Apr-27 00:33N 40°32' W 074°15'4 3.9
2015-Apr-26 23:28N 40°36' W 074°12'4 4.3
2015-Apr-26 22:30N 40°38' W 074°08'0 0.0
2015-Apr-26 21:30N 40°38' W 074°08'0 0.0
2015-Apr-26 20:31N 40°38' W 074°08'0 0.0
2015-Apr-26 19:31N 40°38' W 074°08'0 0.0
2015-Apr-26 18:32N 40°38' W 074°08'0 0.0
2015-Apr-26 17:33N 40°38' W 074°08'0 0.0
2015-Apr-26 16:33N 40°38' W 074°08'0 0.0
2015-Apr-26 15:31N 40°38' W 074°08'0 0.0
2015-Apr-26 14:32N 40°38' W 074°08'0 0.0
2015-Apr-26 13:29N 40°38' W 074°08'0 0.0
2015-Apr-26 12:33N 40°38' W 074°08'0 0.0
2015-Apr-26 11:31N 40°38' W 074°08'0 0.0
2015-Apr-26 10:31N 40°38' W 074°08'0 0.0
2015-Apr-26 09:32N 40°38' W 074°08'0 0.0
2015-Apr-26 08:32N 40°38' W 074°08'0 0.0
2015-Apr-26 07:33N 40°38' W 074°08'0 0.0
2015-Apr-26 06:28N 40°38' W 074°08'0 0.0
2015-Apr-26 05:31N 40°38' W 074°08'0 0.0
2015-Apr-26 04:32N 40°38' W 074°08'0 0.0
2015-Apr-26 03:33N 40°38' W 074°08'0 0.0
2015-Apr-26 02:30N 40°38' W 074°08'0 0.0
2015-Apr-26 01:25N 40°38' W 074°08'0 0.0
2015-Apr-26 00:32N 40°38' W 074°08'0 0.0
2015-Apr-25 23:32N 40°38' W 074°08'0 0.0
2015-Apr-25 22:33N 40°38' W 074°08'0 0.0
2015-Apr-25 21:31N 40°38' W 074°08'0 0.0
2015-Apr-25 20:31N 40°38' W 074°08'0 0.0
2015-Apr-25 19:32N 40°38' W 074°08'0 0.0
2015-Apr-25 18:33N 40°38' W 074°08'0 0.0
2015-Apr-25 17:30N 40°38' W 074°08'0 0.0
2015-Apr-25 16:33N 40°38' W 074°08'8 8.4
2015-Apr-25 15:33N 40°43' W 073°58'6 6.2
2015-Apr-25 14:33N 40°48' W 073°54'4 4.5
2015-Apr-25 13:33N 40°45' W 073°58'6 6.2
2015-Apr-25 12:33N 40°40' W 074°03'4 3.9
2015-Apr-25 11:33N 40°39' W 074°08'0 0.2
2015-Apr-25 10:31N 40°38' W 074°08'0 0.0
2015-Apr-25 09:31N 40°38' W 074°08'0 0.0
2015-Apr-25 08:29N 40°38' W 074°08'0 0.0
2015-Apr-25 07:33N 40°38' W 074°08'0 0.0
2015-Apr-25 06:30N 40°38' W 074°08'0 0.0
2015-Apr-25 05:31N 40°38' W 074°08'0 0.0
2015-Apr-25 04:31N 40°38' W 074°08'0 0.0
2015-Apr-25 03:32N 40°38' W 074°08'0 0.0
2015-Apr-25 02:33N 40°38' W 074°08'0 0.0
2015-Apr-25 01:33N 40°38' W 074°08'16781615.8
2015-Apr-25 00:31N 68°36' W 074°08'16771745.8
2015-Apr-24 23:34N 40°39' W 074°07'1 0.8
2015-Apr-24 22:32N 40°38' W 074°08'0 0.0
2015-Apr-24 21:33N 40°38' W 074°08'0 0.0
2015-Apr-24 20:33N 40°38' W 074°08'0 0.0
2015-Apr-24 19:31N 40°38' W 074°08'0 0.0
2015-Apr-24 18:29N 40°38' W 074°08'0 0.0
2015-Apr-24 17:29N 40°38' W 074°08'0 0.0
2015-Apr-24 16:33N 40°38' W 074°08'0 0.0
2015-Apr-24 15:25N 40°38' W 074°08'0 0.0
2015-Apr-24 14:31N 40°38' W 074°08'2 2.1
2015-Apr-24 13:33N 40°39' W 074°05'8 7.9
2015-Apr-24 12:32N 40°46' W 074°00'0 0.2
2015-Apr-24 11:32N 40°46' W 074°00'0 0.2
2015-Apr-24 10:31N 40°46' W 074°00'0 0.0
2015-Apr-24 09:32N 40°46' W 074°00'6 6.1
2015-Apr-24 08:33N 40°40' W 074°03'  

Dump ship's entire track history